Time;durP1;ratioP1;P1;durP2;ratioP2;P2;SDS_P1;SDS_P2;PMS_P1;PMS_P2;Temp;Humidity;BMP_temperature;BMP_pressure;BME280_temperature;BME280_humidity;BME280_pressure;Samples;Min_cycle;Max_cycle;Signal;HPM_P1;HPM_P2
2021/11/04 00:02:18;;;;;;;25.80;11.30;;;;;;;7.11;83.65;100198.13;5000349;28;20056;-78
2021/11/04 00:04:43;;;;;;;22.92;10.30;;;;;;;7.09;83.73;100199.00;5043639;28;20055;-79
2021/11/04 00:07:13;;;;;;;18.52;9.05;;;;;;;7.14;83.94;100206.81;5046771;28;20116;-79
2021/11/04 00:09:40;;;;;;;17.23;8.00;;;;;;;7.08;83.90;100194.66;5038138;28;20040;-79
2021/11/04 00:12:07;;;;;;;17.20;8.65;;;;;;;6.76;83.77;100147.72;5062674;28;20037;-79
2021/11/04 00:14:33;;;;;;;23.80;9.98;;;;;;;7.13;84.11;100210.25;5028744;28;20080;-78
2021/11/04 00:17:00;;;;;;;22.77;9.32;;;;;;;7.12;84.63;100195.59;5012644;28;20041;-79
2021/11/04 00:19:26;;;;;;;22.38;11.05;;;;;;;7.04;84.37;100159.28;5044594;28;20052;-79
2021/11/04 00:21:52;;;;;;;30.15;11.45;;;;;;;7.27;84.46;100187.13;5028114;28;20045;-78
2021/11/04 00:24:17;;;;;;;29.88;11.00;;;;;;;7.22;83.98;100181.88;5030584;28;20037;-78
2021/11/04 00:26:43;;;;;;;25.13;10.73;;;;;;;7.17;84.42;100170.59;5032495;28;20037;-79
2021/11/04 00:29:09;;;;;;;22.52;9.80;;;;;;;7.22;84.36;100168.94;5032528;28;20041;-78
2021/11/04 00:31:35;;;;;;;23.80;9.85;;;;;;;7.10;83.88;100161.06;5011574;28;20088;-79
2021/11/04 00:34:01;;;;;;;31.05;12.88;;;;;;;7.27;84.50;100179.38;5009622;28;20587;-79
2021/11/04 00:36:27;;;;;;;25.08;11.35;;;;;;;7.07;84.61;100150.66;5011502;28;20049;-79
2021/11/04 00:38:53;;;;;;;17.52;8.32;;;;;;;7.06;83.87;100151.50;4997959;28;20316;-79
2021/11/04 00:41:19;;;;;;;21.60;9.27;;;;;;;7.00;84.22;100146.25;4999670;28;20038;-79
2021/11/04 00:43:45;;;;;;;18.17;9.07;;;;;;;6.88;84.37;100127.19;5028135;28;20046;-79
2021/11/04 00:46:11;;;;;;;14.20;7.45;;;;;;;7.11;84.61;100165.38;4998894;28;20065;-78
2021/11/04 00:48:37;;;;;;;19.52;8.90;;;;;;;7.20;84.85;100174.97;5026997;28;20069;-78
2021/11/04 00:51:04;;;;;;;16.50;7.85;;;;;;;7.05;84.58;100149.78;4992367;28;20076;-78
2021/11/04 00:53:31;;;;;;;13.68;7.50;;;;;;;7.16;84.58;100173.19;5003472;28;20140;-78
2021/11/04 00:55:58;;;;;;;14.70;7.78;;;;;;;6.96;84.48;100144.47;5040881;28;20042;-79
2021/11/04 00:58:24;;;;;;;18.13;8.43;;;;;;;7.14;84.67;100173.19;5012680;28;20056;-78
2021/11/04 01:00:50;;;;;;;18.17;8.30;;;;;;;6.98;84.82;100145.38;5011057;28;20410;-79
2021/11/04 01:03:16;;;;;;;16.05;7.70;;;;;;;7.14;84.93;100170.59;5014259;28;20044;-78
2021/11/04 01:05:42;;;;;;;13.20;6.47;;;;;;;7.15;84.75;100174.03;5029369;28;20060;-78
2021/11/04 01:08:08;;;;;;;11.55;6.55;;;;;;;7.01;84.64;100155.75;5032450;28;20041;-77
2021/11/04 01:10:34;;;;;;;13.43;7.13;;;;;;;7.16;84.89;100176.66;5013775;28;20140;-78
2021/11/04 01:13:00;;;;;;;13.88;7.30;;;;;;;7.17;84.96;100180.94;5029518;28;20115;-78
2021/11/04 01:15:26;;;;;;;18.02;8.52;;;;;;;7.21;85.10;100174.97;5000482;28;20029;-78
2021/11/04 01:17:52;;;;;;;15.75;8.05;;;;;;;7.29;85.00;100175.03;5009361;28;20049;-78
2021/11/04 01:20:19;;;;;;;13.30;7.05;;;;;;;7.30;85.15;100176.78;5038637;28;20033;-77
2021/11/04 01:22:46;;;;;;;16.30;7.60;;;;;;;7.29;84.90;100179.38;5012071;28;20046;-77
2021/11/04 01:25:11;;;;;;;17.30;8.90;;;;;;;7.18;84.88;100161.13;5023994;28;20429;-79
2021/11/04 01:27:37;;;;;;;15.27;8.05;;;;;;;7.07;84.53;100159.28;5037036;28;20037;-76
2021/11/04 01:30:05;;;;;;;14.27;8.32;;;;;;;7.31;85.00;100183.69;5015618;28;21053;-77
2021/11/04 01:32:31;;;;;;;15.63;8.27;;;;;;;7.32;85.36;100185.44;5026859;28;20067;-78
2021/11/04 01:34:57;;;;;;;11.60;7.05;;;;;;;7.28;85.02;100178.50;5030813;28;20040;-79
2021/11/04 01:37:23;;;;;;;16.88;8.52;;;;;;;7.20;85.04;100160.28;5051015;28;21244;-78
2021/11/04 01:39:49;;;;;;;13.43;7.75;;;;;;;7.38;84.92;100187.25;5032098;28;20144;-78
2021/11/04 01:42:15;;;;;;;16.40;8.02;;;;;;;7.34;84.50;100188.06;5031155;28;20041;-77
2021/11/04 01:44:41;;;;;;;21.08;9.15;;;;;;;7.34;85.02;100172.53;5045003;28;20299;-79
2021/11/04 01:47:08;;;;;;;18.35;10.18;;;;;;;7.38;84.99;100190.69;5016530;28;20563;-78
2021/11/04 01:49:40;;;;;;;14.65;8.25;;;;;;;7.29;85.02;100176.78;5049116;28;20044;-77
2021/11/04 01:52:06;;;;;;;16.80;8.63;;;;;;;7.28;84.65;100167.28;5047185;28;20100;-77
2021/11/04 01:54:32;;;;;;;17.42;10.02;;;;;;;7.29;85.10;100169.00;5013042;28;20132;-78
2021/11/04 01:56:58;;;;;;;17.95;8.95;;;;;;;7.37;85.13;100176.00;5030608;28;20446;-78
2021/11/04 01:59:24;;;;;;;17.50;9.45;;;;;;;7.36;85.11;100176.00;5000153;28;20075;-78
2021/11/04 02:02:04;;;;;;;20.00;9.77;;;;;;;7.31;85.06;100178.53;5029200;28;20037;-78
2021/11/04 02:04:40;;;;;;;17.80;10.23;;;;;;;7.50;85.55;100189.94;5048216;28;20613;-78
2021/11/04 02:07:16;;;;;;;19.75;10.15;;;;;;;7.60;85.12;100195.22;5045397;28;20057;-78
2021/11/04 02:09:50;;;;;;;18.63;10.20;;;;;;;7.52;85.37;100171.81;5045624;28;20037;-77
2021/11/04 02:12:29;;;;;;;19.67;11.32;;;;;;;7.54;84.96;100170.13;5014444;28;20063;-79
2021/11/04 02:14:58;;;;;;;17.67;9.70;;;;;;;7.50;84.71;100164.03;5031957;28;20041;-77
2021/11/04 02:17:27;;;;;;;18.35;10.13;;;;;;;7.57;84.90;100190.00;5012249;28;20045;-77
2021/11/04 02:20:00;;;;;;;17.30;10.32;;;;;;;7.65;85.14;100189.22;5027999;28;20037;-79
2021/11/04 02:22:47;;;;;;;20.60;10.57;;;;;;;7.69;85.20;100198.78;5030479;28;20037;-77
2021/11/04 02:25:25;;;;;;;17.40;10.15;;;;;;;7.70;84.95;100204.81;5028111;28;20405;-78
2021/11/04 02:27:54;;;;;;;15.80;9.27;;;;;;;7.70;85.03;100197.03;5060459;28;20065;-78
2021/11/04 02:30:22;;;;;;;16.98;10.75;;;;;;;7.72;85.24;100195.31;5034719;28;20048;-78
2021/11/04 02:32:51;;;;;;;19.65;10.90;;;;;;;7.68;85.25;100188.38;5047153;28;20182;-78
2021/11/04 02:35:17;;;;;;;18.63;10.35;;;;;;;7.69;85.11;100184.94;5046452;28;20047;-77
2021/11/04 02:37:44;;;;;;;16.67;10.70;;;;;;;7.81;85.12;100197.13;5017542;28;20044;-79
2021/11/04 02:40:12;;;;;;;17.00;10.20;;;;;;;7.78;85.05;100199.69;5024021;28;20041;-76
2021/11/04 02:42:39;;;;;;;15.95;10.00;;;;;;;7.90;85.09;100215.34;5028282;28;20523;-77
2021/11/04 02:45:07;;;;;;;19.73;10.05;;;;;;;7.86;84.97;100202.34;5032044;28;20581;-79
2021/11/04 02:47:36;;;;;;;19.27;10.05;;;;;;;7.87;84.92;100206.66;5049949;28;20155;-79
2021/11/04 02:50:04;;;;;;;16.52;9.68;;;;;;;7.80;85.00;100188.50;5045236;28;20123;-78
2021/11/04 02:52:29;;;;;;;19.13;10.15;;;;;;;7.94;85.31;100198.09;5030122;28;20037;-78
2021/11/04 02:54:59;;;;;;;17.55;9.48;;;;;;;7.93;84.98;100201.53;5032888;28;20501;-78
2021/11/04 02:57:27;;;;;;;18.15;10.15;;;;;;;7.87;84.73;100191.13;5030258;28;20033;-79
2021/11/04 02:59:53;;;;;;;18.92;10.13;;;;;;;7.89;85.18;100204.97;5045596;28;20071;-77
2021/11/04 03:02:19;;;;;;;17.40;9.40;;;;;;;7.89;84.89;100195.47;5028152;28;20047;-77
2021/11/04 03:04:44;;;;;;;14.63;9.05;;;;;;;8.02;85.12;100209.41;5049125;28;20033;-79
2021/11/04 03:07:11;;;;;;;17.70;8.65;;;;;;;7.99;85.17;100202.47;5035649;28;20070;-78
2021/11/04 03:09:37;;;;;;;18.10;9.90;;;;;;;8.00;85.14;100198.16;5046774;28;20044;-78
2021/11/04 03:12:03;;;;;;;15.82;8.57;;;;;;;7.91;84.97;100192.91;5016434;28;20047;-78
2021/11/04 03:14:30;;;;;;;16.05;8.65;;;;;;;8.07;85.37;100220.66;5045432;28;20083;-79
2021/11/04 03:16:58;;;;;;;19.65;9.68;;;;;;;8.09;85.14;100225.88;5028795;28;20443;-78
2021/11/04 03:19:25;;;;;;;18.08;9.32;;;;;;;8.09;85.13;100220.69;5027169;28;20737;-79
2021/11/04 03:21:53;;;;;;;17.92;9.07;;;;;;;7.99;85.11;100220.59;5026887;28;20136;-78
2021/11/04 03:24:21;;;;;;;20.00;9.93;;;;;;;7.76;84.94;100186.72;5049088;28;20097;-79
2021/11/04 03:27:00;;;;;;;19.77;9.80;;;;;;;7.98;85.13;100221.47;5032088;28;20100;-78
2021/11/04 03:29:31;;;;;;;17.20;9.32;;;;;;;7.89;85.25;100218.81;5030612;28;20126;-78
2021/11/04 03:32:03;;;;;;;18.70;9.93;;;;;;;7.96;85.18;100230.09;5029556;28;20491;-79
2021/11/04 03:37:38;;;;;;;19.75;9.40;;;;;;;7.87;84.89;100230.00;5015604;28;20052;-79
2021/11/04 03:40:06;;;;;;;19.58;10.07;;;;;;;7.93;85.11;100249.09;5008904;28;20037;-78
2021/11/04 03:42:33;;;;;;;20.27;10.15;;;;;;;7.88;85.23;100237.78;5024428;28;20088;-78
2021/11/04 03:45:01;;;;;;;17.48;9.43;;;;;;;7.82;85.24;100219.59;5045330;28;20100;-79
2021/11/04 03:47:31;;;;;;;19.85;10.20;;;;;;;7.90;85.11;100222.25;5033113;28;20048;-77
2021/11/04 03:49:59;;;;;;;16.45;9.00;;;;;;;8.04;85.06;100237.91;5022366;28;20094;-78
2021/11/04 03:52:27;;;;;;;17.83;9.18;;;;;;;8.11;85.23;100245.75;5029648;28;20045;-79
2021/11/04 03:54:53;;;;;;;17.88;8.07;;;;;;;8.10;85.29;100256.13;5025605;28;20037;-80
2021/11/04 03:57:24;;;;;;;16.30;8.95;;;;;;;7.83;85.05;100210.97;5025527;28;20044;-79
2021/11/04 03:59:51;;;;;;;16.47;9.53;;;;;;;8.10;85.05;100259.56;5012093;28;20045;-77
2021/11/04 04:02:19;;;;;;;15.25;8.57;;;;;;;8.12;85.31;100257.00;5051813;28;20739;-76
2021/11/04 04:04:55;;;;;;;14.68;8.50;;;;;;;8.12;85.08;100255.28;5048863;28;20120;-79
2021/11/04 04:07:26;;;;;;;17.85;8.32;;;;;;;8.10;85.11;100262.16;5032249;28;20045;-78
2021/11/04 04:09:52;;;;;;;15.10;9.17;;;;;;;8.14;85.17;100265.69;5033284;28;20048;-78
2021/11/04 04:12:18;;;;;;;15.25;8.63;;;;;;;8.12;85.12;100268.22;5051527;28;20036;-78
2021/11/04 04:14:44;;;;;;;16.45;9.23;;;;;;;8.13;85.16;100274.31;5020152;28;20049;-78
2021/11/04 04:17:10;;;;;;;14.48;8.18;;;;;;;8.09;84.93;100273.38;5019695;28;20496;-77
2021/11/04 04:19:36;;;;;;;17.70;8.60;;;;;;;8.02;85.15;100260.38;5052492;28;20080;-78
2021/11/04 04:22:03;;;;;;;16.58;8.85;;;;;;;8.11;85.19;100281.19;5050035;28;20128;-77
2021/11/04 04:24:28;;;;;;;17.60;8.70;;;;;;;7.96;85.13;100263.78;5020620;28;20046;-79
2021/11/04 04:26:54;;;;;;;15.98;8.48;;;;;;;8.06;85.39;100282.88;5035836;28;20127;-78
2021/11/04 04:29:21;;;;;;;18.13;8.95;;;;;;;8.12;85.05;100288.97;5030154;28;20040;-79
2021/11/04 04:31:47;;;;;;;14.75;8.27;;;;;;;8.09;85.07;100282.91;5014996;28;20060;-76
2021/11/04 04:34:13;;;;;;;15.93;8.38;;;;;;;7.91;85.26;100274.09;5017391;28;20044;-77
2021/11/04 04:36:39;;;;;;;20.90;9.75;;;;;;;8.05;85.17;100294.09;5031306;28;20051;-77
2021/11/04 04:39:05;;;;;;;15.63;8.35;;;;;;;7.98;85.23;100286.25;5017911;28;20132;-77
2021/11/04 04:41:30;;;;;;;14.80;8.30;;;;;;;8.10;85.25;100316.59;5049441;28;20484;-76
2021/11/04 04:43:56;;;;;;;16.73;8.23;;;;;;;8.12;85.36;100311.44;5042529;28;20163;-75
2021/11/04 04:46:22;;;;;;;18.38;8.60;;;;;;;7.88;85.48;100265.41;5041224;28;20044;-77
2021/11/04 04:48:48;;;;;;;15.52;7.78;;;;;;;8.11;85.49;100291.56;5048590;28;20514;-78
2021/11/04 04:51:14;;;;;;;17.80;8.35;;;;;;;8.21;85.12;100302.88;5028207;28;20049;-79
2021/11/04 04:53:41;;;;;;;23.33;9.18;;;;;;;8.14;85.14;100291.59;5052557;28;20051;-78
2021/11/04 04:56:07;;;;;;;16.90;7.63;;;;;;;8.17;85.26;100295.94;5002045;28;20131;-79
2021/11/04 04:58:34;;;;;;;13.68;8.02;;;;;;;8.20;85.25;100306.31;5014492;28;20041;-76
2021/11/04 05:01:00;;;;;;;19.77;8.73;;;;;;;8.16;85.08;100296.78;5018950;28;20572;-78
2021/11/04 05:03:26;;;;;;;16.50;7.65;;;;;;;8.28;85.37;100315.91;5030107;28;21601;-78
2021/11/04 05:05:52;;;;;;;12.80;8.20;;;;;;;8.33;85.32;100318.53;5053368;28;20069;-77
2021/11/04 05:08:18;;;;;;;14.70;7.85;;;;;;;8.28;85.30;100310.72;5005636;28;20403;-77
2021/11/04 05:10:44;;;;;;;22.58;8.27;;;;;;;8.39;85.13;100322.91;5035990;28;20059;-78
2021/11/04 05:13:10;;;;;;;16.15;8.85;;;;;;;8.18;85.19;100284.69;5050261;28;20041;-78
2021/11/04 05:15:35;;;;;;;19.23;9.82;;;;;;;8.46;85.23;100327.28;5049284;28;20049;-77
2021/11/04 05:18:04;;;;;;;19.13;8.55;;;;;;;8.44;85.08;100327.28;5032212;28;20170;-78
2021/11/04 05:20:30;;;;;;;19.83;8.82;;;;;;;8.29;85.00;100312.47;5034271;28;20040;-78
2021/11/04 05:22:57;;;;;;;17.23;8.95;;;;;;;8.50;85.22;100338.56;5049074;28;20103;-77
2021/11/04 05:25:23;;;;;;;21.05;8.88;;;;;;;8.50;85.34;100335.97;5044261;28;20456;-77
2021/11/04 05:27:48;;;;;;;25.80;9.68;;;;;;;8.42;84.93;100329.00;5028051;28;20126;-76
2021/11/04 05:30:16;;;;;;;21.10;9.50;;;;;;;8.59;85.09;100349.03;5056670;28;20060;-77
2021/11/04 05:32:42;;;;;;;25.55;10.27;;;;;;;8.65;85.11;100350.81;5034295;28;20070;-77
2021/11/04 05:35:08;;;;;;;25.02;10.15;;;;;;;8.57;84.87;100345.56;5029391;28;20052;-78
2021/11/04 05:37:34;;;;;;;21.42;10.23;;;;;;;8.68;84.82;100361.22;5029467;28;20040;-78
2021/11/04 05:40:00;;;;;;;17.02;8.57;;;;;;;8.64;85.06;100346.47;5013350;28;20086;-78
2021/11/04 05:42:26;;;;;;;14.13;7.80;;;;;;;8.59;84.68;100347.34;5045575;28;20048;-79
2021/11/04 05:44:52;;;;;;;17.58;8.43;;;;;;;8.68;84.61;100356.91;5010504;28;20041;-78
2021/11/04 05:47:18;;;;;;;14.15;8.05;;;;;;;8.27;84.59;100302.94;5052881;28;20500;-78
2021/11/04 05:49:44;;;;;;;14.65;8.38;;;;;;;8.60;84.98;100348.19;5014418;28;21236;-77
2021/11/04 05:52:10;;;;;;;13.45;8.13;;;;;;;8.70;84.78;100365.59;5052283;28;20031;-78
2021/11/04 05:54:37;;;;;;;16.33;8.80;;;;;;;8.54;84.89;100343.81;5037604;28;20049;-77
2021/11/04 05:57:03;;;;;;;16.05;8.65;;;;;;;8.64;84.87;100342.16;5028992;28;20033;-77
2021/11/04 05:59:29;;;;;;;13.38;8.13;;;;;;;8.68;84.70;100350.84;5014077;28;20033;-78
2021/11/04 06:02:01;;;;;;;14.10;8.52;;;;;;;8.46;84.35;100324.69;5017046;28;20102;-80
2021/11/04 06:04:32;;;;;;;14.52;9.05;;;;;;;8.86;84.77;100382.09;5050752;28;20052;-78
2021/11/04 06:06:58;;;;;;;16.58;8.52;;;;;;;8.86;84.44;100373.47;4991427;28;20381;-78
2021/11/04 06:09:24;;;;;;;14.07;8.73;;;;;;;8.80;84.52;100370.81;5046304;28;20059;-78
2021/11/04 06:11:51;;;;;;;15.48;9.20;;;;;;;8.86;84.51;100378.66;5047856;28;20052;-80
2021/11/04 06:14:19;;;;;;;15.80;9.18;;;;;;;8.75;84.42;100355.22;5046760;28;20086;-78
2021/11/04 06:16:45;;;;;;;15.90;8.68;;;;;;;8.84;84.41;100375.19;5018219;28;20512;-76
2021/11/04 06:19:11;;;;;;;15.88;9.02;;;;;;;8.95;84.22;100396.03;5033284;28;20072;-79
2021/11/04 06:21:36;;;;;;;17.92;8.82;;;;;;;8.86;84.24;100374.31;5029407;28;20107;-79
2021/11/04 06:24:02;;;;;;;15.50;9.13;;;;;;;9.02;84.05;100398.66;5048038;28;20045;-78
2021/11/04 06:26:28;;;;;;;15.20;9.15;;;;;;;8.93;84.38;100375.25;5029195;28;20044;-78
2021/11/04 06:28:54;;;;;;;15.05;8.77;;;;;;;9.08;84.60;100394.38;5045726;28;20413;-81
2021/11/04 06:31:20;;;;;;;17.15;9.25;;;;;;;8.79;84.35;100358.69;5051613;28;20114;-79
2021/11/04 06:33:46;;;;;;;13.00;8.23;;;;;;;9.23;84.09;100422.19;5029381;28;20095;-78
2021/11/04 06:36:11;;;;;;;14.90;8.40;;;;;;;9.09;83.91;100406.50;5051735;28;20446;-78
2021/11/04 06:38:37;;;;;;;16.60;9.25;;;;;;;9.14;84.13;100423.84;5049023;28;20048;-78
2021/11/04 06:41:06;;;;;;;14.13;9.15;;;;;;;9.25;84.38;100429.13;5018687;28;20037;-79
2021/11/04 06:43:31;;;;;;;16.48;9.38;;;;;;;8.91;84.20;100360.50;5053071;28;20435;-79
2021/11/04 06:46:08;;;;;;;13.50;9.23;;;;;;;9.20;84.14;100412.63;5033021;28;20070;-77
2021/11/04 06:49:05;;;;;;;18.67;9.35;;;;;;;9.27;84.28;100435.19;5024957;28;20052;-76
2021/11/04 06:51:48;;;;;;;21.58;12.13;;;;;;;9.23;84.11;100438.63;5044659;28;20036;-76
2021/11/04 06:54:16;;;;;;;17.35;9.32;;;;;;;9.19;83.91;100432.56;5056040;28;20047;-83
2021/11/04 06:56:47;;;;;;;14.80;8.02;;;;;;;9.12;83.86;100429.91;5041877;28;20110;-78
2021/11/04 06:59:23;;;;;;;15.70;9.38;;;;;;;9.08;84.00;100417.75;5046373;28;20045;-77
2021/11/04 07:01:54;;;;;;;13.93;8.23;;;;;;;9.49;84.14;100440.53;5038060;28;20525;-77
2021/11/04 07:04:40;;;;;;;12.82;7.82;;;;;;;9.77;84.28;100436.31;5023583;28;20046;-78
2021/11/04 07:07:14;;;;;;;12.07;7.50;;;;;;;9.81;83.77;100442.44;5020329;28;20412;-76
2021/11/04 07:09:43;;;;;;;12.43;7.45;;;;;;;9.46;83.84;100392.03;5025126;28;20040;-76
2021/11/04 07:12:12;;;;;;;12.38;7.57;;;;;;;9.39;83.04;100417.94;5046511;28;20040;-77
2021/11/04 07:14:42;;;;;;;14.27;8.45;;;;;;;9.37;83.40;100443.06;5069368;28;20101;-79
2021/11/04 07:17:13;;;;;;;13.15;8.63;;;;;;;9.36;82.94;100449.97;5051527;28;20064;-79
2021/11/04 07:19:42;;;;;;;14.82;9.00;;;;;;;9.25;82.99;100447.28;5053001;28;20119;-77
2021/11/04 07:22:35;;;;;;;13.43;8.38;;;;;;;9.36;83.50;100452.56;5039109;28;20036;-76
2021/11/04 07:25:08;;;;;;;15.95;9.63;;;;;;;9.39;83.80;100468.16;5054441;28;20064;-77
2021/11/04 07:27:59;;;;;;;13.57;8.40;;;;;;;9.42;83.55;100476.00;5031780;28;20110;-81
2021/11/04 07:30:30;;;;;;;13.02;7.50;;;;;;;9.50;83.36;100474.28;5037234;28;20110;-76
2021/11/04 07:33:04;;;;;;;14.98;8.82;;;;;;;9.59;83.45;100468.31;5020229;28;20509;-79
2021/11/04 07:35:34;;;;;;;13.00;8.52;;;;;;;9.63;83.08;100458.78;5035920;28;20037;-79
2021/11/04 07:38:01;;;;;;;12.57;8.00;;;;;;;9.60;83.19;100459.63;5035977;28;20627;-76
2021/11/04 07:40:30;;;;;;;12.30;8.43;;;;;;;9.70;82.95;100480.47;5045649;28;20017;-76
2021/11/04 07:43:00;;;;;;;13.30;7.25;;;;;;;9.48;82.81;100449.19;5039567;28;20159;-77
2021/11/04 07:45:28;;;;;;;11.93;7.75;;;;;;;9.48;82.80;100431.88;5061392;28;20055;-77
2021/11/04 07:47:54;;;;;;;10.45;7.13;;;;;;;9.91;82.95;100488.38;5039366;28;20052;-79
2021/11/04 07:50:24;;;;;;;16.58;7.95;;;;;;;9.81;82.30;100484.03;5026641;28;20123;-77
2021/11/04 07:52:52;;;;;;;15.68;8.00;;;;;;;9.79;82.27;100489.19;5042833;28;20138;-75
2021/11/04 07:55:23;;;;;;;12.45;7.22;;;;;;;9.82;82.31;100485.72;5059282;28;20068;-77
2021/11/04 07:57:51;;;;;;;11.80;6.68;;;;;;;9.45;82.17;100421.47;5059439;28;20072;-77
2021/11/04 08:00:19;;;;;;;12.35;7.28;;;;;;;10.15;82.90;100472.91;5044887;28;20059;-77
2021/11/04 08:02:47;;;;;;;10.57;6.82;;;;;;;10.70;82.34;100483.47;5042717;28;20045;-79
2021/11/04 08:05:16;;;;;;;11.63;6.88;;;;;;;11.47;82.88;100499.09;5016948;28;20497;-76
2021/11/04 08:07:42;;;;;;;10.05;5.95;;;;;;;13.09;82.74;100451.31;5079124;28;20098;-76
2021/11/04 08:10:12;;;;;;;8.18;5.97;;;;;;;15.01;83.74;100453.31;5060969;28;20048;-76
2021/11/04 08:12:57;;;;;;;9.93;6.32;;;;;;;16.72;83.43;100449.88;5074599;28;20040;-74
2021/11/04 08:15:31;;;;;;;8.20;5.70;;;;;;;17.52;79.68;100478.56;5012359;28;20045;-78
2021/11/04 08:18:21;;;;;;;8.25;5.50;;;;;;;18.43;79.92;100463.72;4999144;28;20048;-77
2021/11/04 08:21:05;;;;;;;8.13;5.78;;;;;;;18.67;77.23;100361.94;5049420;28;20135;-79
2021/11/04 08:23:34;;;;;;;10.02;5.72;;;;;;;20.00;76.54;100396.81;5062207;28;20118;-81
2021/11/04 08:26:21;;;;;;;8.13;5.80;;;;;;;20.99;73.59;100457.22;5013075;28;20493;-78
2021/11/04 08:28:47;;;;;;;7.00;5.97;;;;;;;21.66;73.99;100434.94;5043417;28;20051;-79
2021/11/04 08:31:13;;;;;;;7.13;5.55;;;;;;;22.85;71.24;100436.41;5026906;28;20057;-80
2021/11/04 08:33:39;;;;;;;7.15;5.18;;;;;;;23.60;67.59;100436.19;5043650;28;20051;-78
2021/11/04 08:36:08;;;;;;;11.95;5.55;;;;;;;24.33;66.99;100452.63;5019460;28;20044;-77
2021/11/04 08:38:34;;;;;;;7.22;5.38;;;;;;;25.14;65.35;100422.28;5043993;28;20036;-79
2021/11/04 08:40:59;;;;;;;7.75;5.30;;;;;;;24.48;62.15;100440.28;5049153;28;20043;-79
2021/11/04 08:44:04;;;;;;;7.25;5.63;;;;;;;23.24;60.61;100393.84;5025921;28;20029;-78
2021/11/04 08:46:38;;;;;;;7.53;5.30;;;;;;;21.00;58.77;100392.81;5061975;28;20048;-78
2021/11/04 08:49:04;;;;;;;14.00;6.13;;;;;;;19.30;58.86;100416.09;5052741;28;20128;-79
2021/11/04 08:51:32;;;;;;;8.68;6.13;;;;;;;17.87;60.22;100471.50;5007298;28;20390;-79
2021/11/04 08:54:05;;;;;;;9.25;5.65;;;;;;;16.23;61.45;100405.47;5040389;28;20089;-80
2021/11/04 08:56:32;;;;;;;10.43;5.93;;;;;;;15.71;62.58;100475.66;5057245;28;20049;-77
2021/11/04 08:59:00;;;;;;;11.10;6.15;;;;;;;14.89;62.83;100480.59;5041697;28;20349;-78
2021/11/04 09:01:27;;;;;;;9.00;6.60;;;;;;;14.49;64.59;100507.34;5037234;28;20531;-77
2021/11/04 09:03:53;;;;;;;7.97;5.85;;;;;;;14.18;65.34;100512.97;5029209;28;20399;-78
2021/11/04 09:06:19;;;;;;;9.77;6.30;;;;;;;13.89;65.48;100522.03;5016936;28;20037;-79
2021/11/04 09:08:44;;;;;;;10.88;5.63;;;;;;;13.49;65.93;100530.28;5061908;28;20578;-79
2021/11/04 09:11:11;;;;;;;10.93;6.10;;;;;;;13.18;66.44;100531.38;5061542;28;20094;-78
2021/11/04 09:13:37;;;;;;;11.57;5.68;;;;;;;12.89;66.40;100524.66;5039344;28;20041;-77
2021/11/04 09:16:03;;;;;;;10.10;6.43;;;;;;;12.67;67.65;100533.50;5067106;28;20052;-74
2021/11/04 09:18:30;;;;;;;8.75;5.60;;;;;;;12.47;67.50;100545.75;5068724;28;20041;-75
2021/11/04 09:21:01;;;;;;;10.63;5.93;;;;;;;12.38;68.14;100551.00;5053936;28;20081;-78
2021/11/04 09:23:27;;;;;;;12.60;6.35;;;;;;;12.28;68.83;100563.22;5000257;28;20052;-80
2021/11/04 09:25:53;;;;;;;9.93;6.07;;;;;;;12.80;69.59;100515.09;5040741;28;20046;-78
2021/11/04 09:28:19;;;;;;;9.85;5.65;;;;;;;12.89;69.13;100529.00;5036802;28;20041;-80
2021/11/04 09:30:48;;;;;;;10.23;5.85;;;;;;;13.00;69.25;100555.91;5038013;28;20056;-79
2021/11/04 09:33:15;;;;;;;10.63;6.50;;;;;;;13.82;70.10;100563.06;5035870;28;20068;-78
2021/11/04 09:35:42;;;;;;;13.43;5.97;;;;;;;13.89;68.19;100536.88;5021550;28;20566;-78
2021/11/04 09:38:13;;;;;;;11.98;5.50;;;;;;;13.82;68.14;100531.69;5055824;28;20079;-78
2021/11/04 09:40:50;;;;;;;14.00;5.53;;;;;;;13.54;66.94;100567.72;5023802;28;20504;-78
2021/11/04 09:43:16;;;;;;;12.98;5.47;;;;;;;12.92;66.87;100534.19;5020939;28;20045;-78
2021/11/04 09:45:51;;;;;;;9.10;5.15;;;;;;;13.02;67.33;100551.53;5024781;28;20025;-76
2021/11/04 09:48:18;;;;;;;;;;;;;;;14.34;67.79;100567.78;5037820;28;20068;-81
2021/11/04 09:50:49;;;;;;;11.35;4.93;;;;;;;14.39;66.07;100574.69;5038322;28;20022;-78
2021/11/04 09:53:15;;;;;;;7.35;5.18;;;;;;;14.07;65.81;100557.59;5056647;28;20081;-79
2021/11/04 09:55:43;;;;;;;9.25;5.65;;;;;;;13.79;65.78;100557.03;5051973;28;20098;-79
2021/11/04 09:58:09;;;;;;;11.52;6.15;;;;;;;13.39;65.20;100539.91;5035292;28;20112;-79
2021/11/04 10:00:40;;;;;;;11.13;6.60;;;;;;;13.22;65.35;100550.53;5055221;28;20108;-77
2021/11/04 10:03:15;;;;;;;10.93;7.07;;;;;;;13.34;65.40;100576.56;5036924;28;20547;-80
2021/11/04 10:05:51;;;;;;;13.70;6.22;;;;;;;13.08;65.02;100567.16;5052765;28;20041;-78
2021/11/04 10:08:31;;;;;;;10.82;6.53;;;;;;;12.74;65.04;100562.16;5020984;28;20641;-78
2021/11/04 10:11:12;;;;;;;10.18;6.28;;;;;;;12.64;65.45;100578.75;5037542;28;20040;-79
2021/11/04 10:13:38;;;;;;;9.63;5.47;;;;;;;12.28;65.71;100570.22;5049442;28;20047;-77
2021/11/04 10:16:07;;;;;;;14.32;6.55;;;;;;;12.15;65.79;100580.66;5033634;28;20091;-78
2021/11/04 10:18:48;;;;;;;9.43;5.53;;;;;;;12.12;66.30;100592.88;5037272;28;20044;-77
2021/11/04 10:21:22;;;;;;;10.18;6.20;;;;;;;12.04;66.20;100582.44;5002860;28;20111;-79
2021/11/04 10:23:49;;;;;;;9.43;5.78;;;;;;;12.04;67.07;100566.81;5028261;28;20040;-76
2021/11/04 10:26:18;;;;;;;14.05;5.60;;;;;;;12.01;66.77;100567.69;5054682;28;20028;-80
2021/11/04 10:28:49;;;;;;;12.45;6.25;;;;;;;12.24;67.03;100590.25;5054352;28;20060;-77
2021/11/04 10:31:17;;;;;;;13.68;5.85;;;;;;;12.08;66.97;100572.88;5022760;28;20480;-79
2021/11/04 10:33:48;;;;;;;10.25;5.60;;;;;;;11.97;66.19;100589.41;5020247;28;20177;-77
2021/11/04 10:36:23;;;;;;;10.27;5.55;;;;;;;11.73;66.46;100599.00;5020817;28;20048;-81
2021/11/04 10:38:58;;;;;;;7.68;5.05;;;;;;;11.57;66.27;100608.56;5035510;28;20036;-79
2021/11/04 10:41:35;;;;;;;15.30;9.20;;;;;;;11.26;66.94;100581.63;5033389;28;20034;-78
2021/11/04 10:44:03;;;;;;;15.90;5.10;;;;;;;11.24;66.85;100617.22;5014944;28;20484;-80
2021/11/04 10:46:30;;;;;;;11.55;4.97;;;;;;;11.11;67.00;100622.41;5037767;28;20055;-79
2021/11/04 10:49:02;;;;;;;13.40;5.22;;;;;;;11.00;67.45;100621.50;5050915;28;20037;-78
2021/11/04 10:51:33;;;;;;;14.68;7.15;;;;;;;10.85;67.73;100599.78;5038599;28;20060;-77
2021/11/04 10:54:03;;;;;;;14.05;5.80;;;;;;;11.05;67.45;100639.75;5027185;28;20544;-78
2021/11/04 10:56:40;;;;;;;9.13;5.35;;;;;;;11.04;68.24;100611.97;5023741;28;20068;-78
2021/11/04 10:59:10;;;;;;;7.65;5.45;;;;;;;11.13;67.92;100630.22;5055910;28;20439;-80
2021/11/04 11:01:40;;;;;;;7.43;5.28;;;;;;;10.19;67.94;100487.63;5033419;28;20040;-81
2021/11/04 11:04:13;;;;;;;9.50;5.57;;;;;;;10.94;68.01;100635.38;5016145;28;20056;-83
2021/11/04 11:06:51;;;;;;;16.25;5.65;;;;;;;10.69;68.34;100606.66;5016260;28;20439;-78
2021/11/04 11:09:21;;;;;;;13.70;5.55;;;;;;;10.79;68.37;100641.41;5053027;28;20044;-79
2021/11/04 11:11:49;;;;;;;10.60;5.03;;;;;;;10.80;68.38;100645.75;5052686;28;20397;-79
2021/11/04 11:14:17;;;;;;;10.80;4.60;;;;;;;10.72;68.59;100650.06;5033906;28;20484;-78
2021/11/04 11:16:49;;;;;;;6.93;4.43;;;;;;;10.69;68.43;100653.53;5031570;28;20036;-79
2021/11/04 11:19:20;;;;;;;10.82;4.78;;;;;;;10.69;68.32;100655.28;5032417;28;20128;-77
2021/11/04 11:21:51;;;;;;;10.18;4.78;;;;;;;10.72;68.53;100654.41;5045051;28;20041;-76
2021/11/04 11:24:24;;;;;;;8.05;4.55;;;;;;;10.58;68.68;100607.50;5030891;28;20048;-77
2021/11/04 11:26:52;;;;;;;9.45;4.80;;;;;;;10.87;68.56;100649.25;5059055;28;20075;-78
2021/11/04 11:29:19;;;;;;;12.95;4.75;;;;;;;10.97;68.27;100652.75;5036451;28;20045;-76
2021/11/04 11:31:58;;;;;;;7.57;4.88;;;;;;;11.00;68.20;100653.66;5022913;28;20053;-78
2021/11/04 11:34:33;;;;;;;6.68;4.38;;;;;;;10.89;68.26;100628.44;5056692;28;20185;-77